createdAt,value
2017-10-01T00:00:14.616Z,979.61
2017-10-01T00:02:07.418Z,979.64
2017-10-01T00:03:07.291Z,979.60
2017-10-01T00:05:00.109Z,979.63
2017-10-01T00:05:59.949Z,979.63
2017-10-01T00:07:52.723Z,979.66
2017-10-01T00:08:52.698Z,979.61
2017-10-01T00:10:45.423Z,979.66
2017-10-01T00:11:45.295Z,979.64
2017-10-01T00:13:38.051Z,979.66
2017-10-01T00:14:37.961Z,979.63
2017-10-01T00:16:30.764Z,979.65
2017-10-01T00:17:30.633Z,979.65
2017-10-01T00:19:23.435Z,979.63
2017-10-01T00:20:23.372Z,979.66
2017-10-01T00:22:16.710Z,979.66
2017-10-01T00:23:16.107Z,979.65
2017-10-01T00:25:08.949Z,979.65
2017-10-01T00:26:08.699Z,979.63
2017-10-01T00:28:01.472Z,979.66
2017-10-01T00:29:01.387Z,979.64
2017-10-01T00:30:54.866Z,979.65
2017-10-01T00:31:54.740Z,979.63
2017-10-01T00:33:47.608Z,979.66
2017-10-01T00:34:47.420Z,979.67
2017-10-01T00:36:40.363Z,979.70
2017-10-01T00:37:40.173Z,979.69
2017-10-01T00:39:32.870Z,979.71
2017-10-01T00:40:32.793Z,979.71
2017-10-01T00:42:25.641Z,979.73
2017-10-01T00:43:25.514Z,979.71
2017-10-01T00:45:18.389Z,979.72
2017-10-01T00:46:18.200Z,979.75
2017-10-01T00:48:11.666Z,979.77
2017-10-01T00:49:11.360Z,979.78
2017-10-01T00:51:04.140Z,979.85
2017-10-01T00:52:04.017Z,979.86
2017-10-01T00:53:56.770Z,979.91
2017-10-01T00:54:56.705Z,979.93
2017-10-01T00:56:49.506Z,979.99
2017-10-01T00:57:49.407Z,979.99
2017-10-01T00:59:42.271Z,980.01
2017-10-01T01:00:42.057Z,980.03
2017-10-01T01:02:34.897Z,980.04
2017-10-01T01:03:34.805Z,980.11
2017-10-01T01:05:27.534Z,980.09
2017-10-01T01:06:27.402Z,980.09
2017-10-01T01:08:20.176Z,980.10
2017-10-01T01:09:20.088Z,980.09
2017-10-01T01:11:13.158Z,980.09
2017-10-01T01:12:12.974Z,980.08
2017-10-01T01:14:05.598Z,980.08
2017-10-01T01:15:05.502Z,980.10
2017-10-01T01:16:58.255Z,980.09
2017-10-01T01:17:58.130Z,980.10
2017-10-01T01:19:50.892Z,980.11
2017-10-01T01:20:50.812Z,980.10
2017-10-01T01:22:43.638Z,980.10
2017-10-01T01:23:43.560Z,980.12
2017-10-01T01:25:36.404Z,980.10
2017-10-01T01:26:36.186Z,980.12
2017-10-01T01:28:29.371Z,980.16
2017-10-01T01:29:29.292Z,980.13
2017-10-01T01:31:22.779Z,980.18
2017-10-01T01:32:22.587Z,980.17
2017-10-01T01:34:15.386Z,980.20
2017-10-01T01:35:15.379Z,980.20
2017-10-01T01:37:08.108Z,980.18
2017-10-01T01:38:07.992Z,980.17
2017-10-01T01:40:00.916Z,980.19
2017-10-01T01:41:00.729Z,980.18
2017-10-01T01:42:53.777Z,980.18
2017-10-01T01:43:53.694Z,980.20
2017-10-01T01:45:46.611Z,980.18
2017-10-01T01:46:46.449Z,980.23
2017-10-01T01:48:39.201Z,980.27
2017-10-01T01:49:39.087Z,980.22
2017-10-01T01:51:31.967Z,980.22
2017-10-01T01:52:31.840Z,980.24
2017-10-01T01:54:24.671Z,980.22
2017-10-01T01:55:24.587Z,980.23
2017-10-01T01:57:17.516Z,980.27
2017-10-01T01:58:17.457Z,980.27
2017-10-01T02:00:10.242Z,980.30
2017-10-01T02:01:10.114Z,980.32
2017-10-01T02:03:02.844Z,980.31
2017-10-01T02:04:02.714Z,980.35
2017-10-01T02:05:55.521Z,980.33
2017-10-01T02:06:55.394Z,980.32
2017-10-01T02:08:48.163Z,980.32
2017-10-01T02:09:48.072Z,980.33
2017-10-01T02:11:41.006Z,980.34
2017-10-01T02:12:40.821Z,980.35
2017-10-01T02:14:33.482Z,980.36
2017-10-01T02:15:33.402Z,980.35
2017-10-01T02:17:26.313Z,980.38
2017-10-01T02:18:26.187Z,980.40
2017-10-01T02:20:19.054Z,980.43
2017-10-01T02:21:18.932Z,980.42
2017-10-01T02:23:11.796Z,980.46
2017-10-01T02:24:11.552Z,980.44
2017-10-01T02:26:04.306Z,980.47
2017-10-01T02:27:04.217Z,980.45
2017-10-01T02:28:56.964Z,980.51
2017-10-01T02:29:56.885Z,980.51
2017-10-01T02:31:49.677Z,980.53
2017-10-01T02:32:49.554Z,980.55
2017-10-01T02:34:42.408Z,980.57
2017-10-01T02:35:42.397Z,980.58
2017-10-01T02:37:35.011Z,980.58
2017-10-01T02:38:34.879Z,980.60
2017-10-01T02:40:27.668Z,980.59
2017-10-01T02:41:27.541Z,980.62
2017-10-01T02:43:20.511Z,980.65
2017-10-01T02:44:20.352Z,980.66
2017-10-01T02:46:13.489Z,980.68
2017-10-01T02:47:13.102Z,980.70
2017-10-01T02:49:05.821Z,980.72
2017-10-01T02:50:05.736Z,980.70
2017-10-01T02:51:58.983Z,980.72
2017-10-01T02:52:58.860Z,980.73
2017-10-01T02:54:51.952Z,980.74
2017-10-01T02:55:51.921Z,980.72
2017-10-01T02:57:45.315Z,980.77
2017-10-01T02:58:44.597Z,980.78
2017-10-01T03:00:37.395Z,980.79
2017-10-01T03:01:37.208Z,980.82
2017-10-01T03:03:29.951Z,980.90
2017-10-01T03:04:29.870Z,980.93
2017-10-01T03:06:23.174Z,980.95
2017-10-01T03:07:23.046Z,980.92
2017-10-01T03:09:15.802Z,980.96
2017-10-01T03:10:15.720Z,980.97
2017-10-01T03:12:08.640Z,980.99
2017-10-01T03:13:08.416Z,981.00
2017-10-01T03:15:01.124Z,981.00
2017-10-01T03:16:01.049Z,981.04
2017-10-01T03:17:54.411Z,981.05
2017-10-01T03:18:54.281Z,981.06
2017-10-01T03:20:47.210Z,981.08
2017-10-01T03:21:47.010Z,981.07
2017-10-01T03:23:39.860Z,981.14
2017-10-01T03:24:39.659Z,981.12
2017-10-01T03:26:32.408Z,981.13
2017-10-01T03:27:32.286Z,981.14
2017-10-01T03:29:25.413Z,981.20
2017-10-01T03:30:25.334Z,981.19
2017-10-01T03:32:18.211Z,981.20
2017-10-01T03:33:18.116Z,981.18
2017-10-01T03:35:10.821Z,981.19
2017-10-01T03:36:10.754Z,981.23
2017-10-01T03:38:03.571Z,981.21
2017-10-01T03:39:03.444Z,981.22
2017-10-01T03:40:56.478Z,981.21
2017-10-01T03:41:56.351Z,981.23
2017-10-01T03:43:49.108Z,981.27
2017-10-01T03:44:49.020Z,981.27
2017-10-01T03:46:41.807Z,981.24
2017-10-01T03:47:41.759Z,981.26
2017-10-01T03:49:34.457Z,981.32
2017-10-01T03:50:34.338Z,981.33
2017-10-01T03:52:27.362Z,981.37
2017-10-01T03:53:27.232Z,981.36
2017-10-01T03:55:19.996Z,981.39
2017-10-01T03:56:19.940Z,981.40
2017-10-01T03:58:13.067Z,981.40
2017-10-01T03:59:12.585Z,981.40
2017-10-01T04:01:05.422Z,981.42
2017-10-01T04:02:05.233Z,981.44
2017-10-01T04:03:57.983Z,981.44
2017-10-01T04:04:57.901Z,981.42
2017-10-01T04:06:50.934Z,981.46
2017-10-01T04:07:50.803Z,981.48
2017-10-01T04:09:43.515Z,981.48
2017-10-01T04:10:43.446Z,981.46
2017-10-01T04:12:36.267Z,981.50
2017-10-01T04:13:36.102Z,981.50
2017-10-01T04:15:28.851Z,981.55
2017-10-01T04:16:28.772Z,981.55
2017-10-01T04:18:21.609Z,981.55
2017-10-01T04:19:21.471Z,981.52
2017-10-01T04:21:14.647Z,981.53
2017-10-01T04:22:14.120Z,981.54
2017-10-01T04:24:06.893Z,981.58
2017-10-01T04:25:06.788Z,981.56
2017-10-01T04:26:59.592Z,981.56
2017-10-01T04:27:59.463Z,981.60
2017-10-01T04:29:52.593Z,981.60
2017-10-01T04:30:52.486Z,981.59
2017-10-01T04:32:45.304Z,981.63
2017-10-01T04:33:45.130Z,981.67
2017-10-01T04:35:37.959Z,981.63
2017-10-01T04:36:37.802Z,981.64
2017-10-01T04:38:30.580Z,981.70
2017-10-01T04:39:30.453Z,981.65
2017-10-01T04:41:23.415Z,981.73
2017-10-01T04:42:23.290Z,981.67
2017-10-01T04:44:16.040Z,981.75
2017-10-01T04:45:15.970Z,981.75
2017-10-01T04:47:08.755Z,981.72
2017-10-01T04:48:08.673Z,981.76
2017-10-01T04:50:01.393Z,981.81
2017-10-01T04:51:01.311Z,981.81
2017-10-01T04:52:54.129Z,981.84
2017-10-01T04:53:54.002Z,981.84
2017-10-01T04:55:46.756Z,981.90
2017-10-01T04:56:46.710Z,981.92
2017-10-01T04:58:39.572Z,981.93
2017-10-01T04:59:40.127Z,981.95
2017-10-01T05:01:32.117Z,981.97
2017-10-01T05:02:31.992Z,981.96
2017-10-01T05:04:24.849Z,981.97
2017-10-01T05:05:24.771Z,981.99
2017-10-01T05:07:17.601Z,981.97
2017-10-01T05:08:17.433Z,981.98
2017-10-01T05:10:10.269Z,982.00
2017-10-01T05:11:10.185Z,982.01
2017-10-01T05:13:02.893Z,982.01
2017-10-01T05:14:02.769Z,982.04
2017-10-01T05:15:55.640Z,982.04
2017-10-01T05:16:55.560Z,982.09
2017-10-01T05:18:48.393Z,982.06
2017-10-01T05:19:48.259Z,982.06
2017-10-01T05:21:41.039Z,982.06
2017-10-01T05:22:40.972Z,982.13
2017-10-01T05:24:33.647Z,982.10
2017-10-01T05:25:33.566Z,982.13
2017-10-01T05:27:26.862Z,982.13
2017-10-01T05:28:26.739Z,982.17
2017-10-01T05:30:20.000Z,982.19
2017-10-01T05:31:19.921Z,982.20
2017-10-01T05:33:12.784Z,982.20
2017-10-01T05:34:12.593Z,982.20
2017-10-01T05:36:05.305Z,982.20
2017-10-01T05:37:05.207Z,982.24
2017-10-01T05:38:58.011Z,982.25
2017-10-01T05:39:57.883Z,982.22
2017-10-01T05:41:50.765Z,982.25
2017-10-01T05:42:50.613Z,982.26
2017-10-01T05:44:43.798Z,982.29
2017-10-01T05:45:43.725Z,982.31
2017-10-01T05:47:36.527Z,982.30
2017-10-01T05:48:36.366Z,982.31
2017-10-01T05:50:29.182Z,982.32
2017-10-01T05:51:29.096Z,982.33
2017-10-01T05:53:21.970Z,982.36
2017-10-01T05:54:21.807Z,982.38
2017-10-01T05:56:14.896Z,982.41
2017-10-01T05:57:14.476Z,982.39
2017-10-01T05:59:07.459Z,982.36
2017-10-01T06:00:07.124Z,982.40
2017-10-01T06:01:59.990Z,982.41
2017-10-01T06:02:59.864Z,982.39
2017-10-01T06:04:52.623Z,982.42
2017-10-01T06:05:52.579Z,982.44
2017-10-01T06:07:45.680Z,982.42
2017-10-01T06:08:45.444Z,982.45
2017-10-01T06:10:37.990Z,982.48
2017-10-01T06:11:37.892Z,982.45
2017-10-01T06:13:30.705Z,982.51
2017-10-01T06:14:30.571Z,982.51
2017-10-01T06:16:23.438Z,982.53
2017-10-01T06:17:23.376Z,982.55
2017-10-01T06:19:16.089Z,982.58
2017-10-01T06:20:16.000Z,982.57
2017-10-01T06:22:08.912Z,982.57
2017-10-01T06:23:08.690Z,982.59
2017-10-01T06:25:01.438Z,982.62
2017-10-01T06:26:01.359Z,982.61
2017-10-01T06:27:54.228Z,982.68
2017-10-01T06:28:54.099Z,982.68
2017-10-01T06:30:47.207Z,982.70
2017-10-01T06:31:46.963Z,982.71
2017-10-01T06:33:39.728Z,982.76
2017-10-01T06:34:39.521Z,982.76
2017-10-01T06:36:32.218Z,982.76
2017-10-01T06:37:32.091Z,982.82
2017-10-01T06:39:25.807Z,982.82
2017-10-01T06:40:25.723Z,982.80
2017-10-01T06:42:18.545Z,982.83
2017-10-01T06:43:18.425Z,982.83
2017-10-01T06:45:11.425Z,982.88
2017-10-01T06:46:11.120Z,982.90
2017-10-01T06:48:03.885Z,982.90
2017-10-01T06:49:03.757Z,982.92
2017-10-01T06:50:58.221Z,982.91
2017-10-01T06:51:58.141Z,982.92
2017-10-01T06:53:51.112Z,982.93
2017-10-01T06:54:50.983Z,982.96
2017-10-01T06:56:43.877Z,982.98
2017-10-01T06:57:43.676Z,983.00
2017-10-01T06:59:36.993Z,983.01
2017-10-01T07:00:36.805Z,983.00
2017-10-01T07:02:29.639Z,983.02
2017-10-01T07:03:29.513Z,983.03
2017-10-01T07:05:22.275Z,983.06
2017-10-01T07:06:22.188Z,983.05
2017-10-01T07:08:15.066Z,983.08
2017-10-01T07:09:14.844Z,983.08
2017-10-01T07:11:07.588Z,983.09
2017-10-01T07:12:07.517Z,983.11
2017-10-01T07:14:00.289Z,983.11
2017-10-01T07:15:00.163Z,983.13
2017-10-01T07:16:52.975Z,983.14
2017-10-01T07:17:52.856Z,983.12
2017-10-01T07:19:45.596Z,983.14
2017-10-01T07:20:45.555Z,983.16
2017-10-01T07:22:38.295Z,983.17
2017-10-01T07:23:38.179Z,983.19
2017-10-01T07:25:30.978Z,983.20
2017-10-01T07:26:30.898Z,983.24
2017-10-01T07:28:23.703Z,983.26
2017-10-01T07:29:23.573Z,983.29
2017-10-01T07:31:16.340Z,983.29
2017-10-01T07:32:16.268Z,983.28
2017-10-01T07:34:09.118Z,983.32
2017-10-01T07:35:08.981Z,983.32
2017-10-01T07:37:01.862Z,983.36
2017-10-01T07:38:01.750Z,983.35
2017-10-01T07:39:55.162Z,983.37
2017-10-01T07:40:55.081Z,983.36
2017-10-01T07:42:48.171Z,983.37
2017-10-01T07:43:47.792Z,983.35
2017-10-01T07:45:41.539Z,983.43
2017-10-01T07:46:40.533Z,983.41
2017-10-01T07:48:33.208Z,983.39
2017-10-01T07:49:33.081Z,983.39
2017-10-01T07:51:26.120Z,983.42
2017-10-01T07:52:26.038Z,983.41
2017-10-01T07:54:18.957Z,983.42
2017-10-01T07:55:18.825Z,983.46
2017-10-01T07:57:12.408Z,983.49
2017-10-01T07:58:11.491Z,983.52
2017-10-01T08:00:04.245Z,983.49
2017-10-01T08:01:04.156Z,983.51
2017-10-01T08:02:57.081Z,983.53
2017-10-01T08:03:56.958Z,983.51
2017-10-01T08:05:49.761Z,983.53
2017-10-01T08:06:49.757Z,983.54
2017-10-01T08:08:42.503Z,983.59
2017-10-01T08:09:42.325Z,983.57
2017-10-01T08:11:35.074Z,983.60
2017-10-01T08:12:34.956Z,983.63
2017-10-01T08:14:27.745Z,983.65
2017-10-01T08:15:27.619Z,983.66
2017-10-01T08:17:20.588Z,983.66
2017-10-01T08:18:20.322Z,983.67
2017-10-01T08:20:13.193Z,983.70
2017-10-01T08:21:13.001Z,983.71
2017-10-01T08:23:05.814Z,983.70
2017-10-01T08:24:05.749Z,983.72
2017-10-01T08:25:58.414Z,983.68
2017-10-01T08:26:58.337Z,983.73
2017-10-01T08:28:51.358Z,983.73
2017-10-01T08:29:51.214Z,983.75
2017-10-01T08:31:43.919Z,983.80
2017-10-01T08:32:43.932Z,983.79
2017-10-01T08:34:36.634Z,983.80
2017-10-01T08:35:36.487Z,983.82
2017-10-01T08:37:29.269Z,983.85
2017-10-01T08:38:29.142Z,983.88
2017-10-01T08:40:22.424Z,983.88
2017-10-01T08:41:22.344Z,983.88
2017-10-01T08:43:15.585Z,983.89
2017-10-01T08:44:15.080Z,983.87
2017-10-01T08:46:07.858Z,983.89
2017-10-01T08:47:07.817Z,983.89
2017-10-01T08:49:00.555Z,983.95
2017-10-01T08:50:00.426Z,983.92
2017-10-01T08:51:53.217Z,983.93
2017-10-01T08:52:53.088Z,983.92
2017-10-01T08:54:45.957Z,983.95
2017-10-01T08:55:45.790Z,983.92
2017-10-01T08:57:38.602Z,983.95
2017-10-01T08:58:38.490Z,983.90
2017-10-01T09:00:31.663Z,983.92
2017-10-01T09:01:31.585Z,983.93
2017-10-01T09:03:24.453Z,983.94
2017-10-01T09:04:24.370Z,983.95
2017-10-01T09:06:17.237Z,983.99
2017-10-01T09:07:17.165Z,983.96
2017-10-01T09:09:10.570Z,984.00
2017-10-01T09:10:10.338Z,983.96
2017-10-01T09:12:02.911Z,983.98
2017-10-01T09:13:02.831Z,983.97
2017-10-01T09:14:55.640Z,983.94
2017-10-01T09:15:55.516Z,983.97
2017-10-01T09:17:48.394Z,984.01
2017-10-01T09:18:48.289Z,983.99
2017-10-01T09:20:41.072Z,984.00
2017-10-01T09:21:40.949Z,983.98
2017-10-01T09:23:33.701Z,983.99
2017-10-01T09:24:33.644Z,983.99
2017-10-01T09:26:27.404Z,984.01
2017-10-01T09:27:27.264Z,984.02
2017-10-01T09:29:20.073Z,984.06
2017-10-01T09:30:19.953Z,984.04
2017-10-01T09:32:12.972Z,984.04
2017-10-01T09:33:12.666Z,984.05
2017-10-01T09:35:05.407Z,984.02
2017-10-01T09:36:05.275Z,984.06
2017-10-01T09:37:57.993Z,984.02
2017-10-01T09:38:57.915Z,984.09
2017-10-01T09:40:51.152Z,984.04
2017-10-01T09:41:51.031Z,984.05
2017-10-01T09:43:46.845Z,984.04
2017-10-01T09:44:43.700Z,984.06
2017-10-01T09:46:36.623Z,984.03
2017-10-01T09:47:36.318Z,984.02
2017-10-01T09:49:29.039Z,984.01
2017-10-01T09:50:28.904Z,984.00
2017-10-01T09:52:22.868Z,983.97
2017-10-01T09:53:22.786Z,983.96
2017-10-01T09:55:15.702Z,983.98
2017-10-01T09:56:15.585Z,984.01
2017-10-01T09:58:08.294Z,984.00
2017-10-01T09:59:08.139Z,984.00
2017-10-01T10:01:01.048Z,984.04
2017-10-01T10:02:00.815Z,984.06
2017-10-01T10:03:53.608Z,984.04
2017-10-01T10:04:53.525Z,984.01
2017-10-01T10:06:46.327Z,984.07
2017-10-01T10:07:46.203Z,984.10
2017-10-01T10:09:38.964Z,984.14
2017-10-01T10:10:38.863Z,984.15
2017-10-01T10:12:31.651Z,984.16
2017-10-01T10:13:31.523Z,984.20
2017-10-01T10:15:24.380Z,984.15
2017-10-01T10:16:24.217Z,984.17
2017-10-01T10:18:17.141Z,984.16
2017-10-01T10:19:16.932Z,984.14
2017-10-01T10:21:09.714Z,984.21
2017-10-01T10:22:09.606Z,984.22
2017-10-01T10:24:02.291Z,984.21
2017-10-01T10:25:02.213Z,984.22
2017-10-01T10:26:55.015Z,984.24
2017-10-01T10:27:54.889Z,984.25
2017-10-01T10:29:47.644Z,984.23
2017-10-01T10:30:47.559Z,984.25
2017-10-01T10:32:40.394Z,984.29
2017-10-01T10:33:40.317Z,984.26
2017-10-01T10:35:32.960Z,984.25
2017-10-01T10:36:32.881Z,984.27
2017-10-01T10:38:25.675Z,984.25
2017-10-01T10:39:25.540Z,984.24
2017-10-01T10:41:18.350Z,984.26
2017-10-01T10:42:18.334Z,984.27
2017-10-01T10:44:11.098Z,984.24
2017-10-01T10:45:10.873Z,984.25
2017-10-01T10:47:04.145Z,984.27
2017-10-01T10:48:04.032Z,984.26
2017-10-01T10:49:56.833Z,984.24
2017-10-01T10:50:56.706Z,984.29
2017-10-01T10:52:49.583Z,984.25
2017-10-01T10:53:49.376Z,984.28
2017-10-01T10:55:42.231Z,984.28
2017-10-01T10:56:42.122Z,984.29
2017-10-01T10:58:34.851Z,984.30
2017-10-01T10:59:34.692Z,984.28
2017-10-01T11:01:27.837Z,984.24
2017-10-01T11:02:27.756Z,984.27
2017-10-01T11:04:20.770Z,984.21
2017-10-01T11:05:20.581Z,984.21
2017-10-01T11:07:14.139Z,984.23
2017-10-01T11:08:13.807Z,984.22
2017-10-01T11:10:06.544Z,984.19
2017-10-01T11:11:06.489Z,984.15
2017-10-01T11:12:59.106Z,984.18
2017-10-01T11:13:59.024Z,984.21
2017-10-01T11:15:52.019Z,984.20
2017-10-01T11:16:51.774Z,984.24
2017-10-01T11:18:44.835Z,984.25
2017-10-01T11:19:44.620Z,984.23
2017-10-01T11:21:37.368Z,984.17
2017-10-01T11:22:37.246Z,984.13
2017-10-01T11:24:29.896Z,984.14
2017-10-01T11:25:29.769Z,984.20
2017-10-01T11:27:22.609Z,984.14
2017-10-01T11:28:22.531Z,984.14
2017-10-01T11:30:15.398Z,984.14
2017-10-01T11:31:15.433Z,984.13
2017-10-01T11:33:08.120Z,984.13
2017-10-01T11:34:07.922Z,984.14
2017-10-01T11:36:00.951Z,984.14
2017-10-01T11:37:00.753Z,984.13
2017-10-01T11:38:53.711Z,984.10
2017-10-01T11:39:53.777Z,984.09
2017-10-01T11:41:47.154Z,984.12
2017-10-01T11:42:46.586Z,984.06
2017-10-01T11:44:39.209Z,984.01
2017-10-01T11:45:39.146Z,984.02
2017-10-01T11:47:32.084Z,984.00
2017-10-01T11:48:31.913Z,983.99
2017-10-01T11:50:27.061Z,984.03
2017-10-01T11:51:26.865Z,984.02
2017-10-01T11:53:20.015Z,984.05
2017-10-01T11:54:23.237Z,984.04
2017-10-01T11:56:18.348Z,984.08
2017-10-01T11:57:12.513Z,984.05
2017-10-01T11:59:05.098Z,984.06
2017-10-01T12:00:05.034Z,984.10
2017-10-01T12:01:57.983Z,984.05
2017-10-01T12:02:57.833Z,984.01
2017-10-01T12:04:50.720Z,984.01
2017-10-01T12:05:50.679Z,984.02
2017-10-01T12:07:43.406Z,983.99
2017-10-01T12:08:43.225Z,983.98
2017-10-01T12:10:36.086Z,984.00
2017-10-01T12:11:35.959Z,984.00
2017-10-01T12:13:29.029Z,983.98
2017-10-01T12:14:28.793Z,984.04
2017-10-01T12:16:22.090Z,984.03
2017-10-01T12:17:21.712Z,984.06
2017-10-01T12:19:15.587Z,984.05
2017-10-01T12:20:14.410Z,984.02
2017-10-01T12:22:07.429Z,984.00
2017-10-01T12:23:07.139Z,983.99
2017-10-01T12:24:59.954Z,984.00
2017-10-01T12:25:59.879Z,983.93
2017-10-01T12:27:55.204Z,983.93
2017-10-01T12:28:54.313Z,983.95
2017-10-01T12:30:47.621Z,983.91
2017-10-01T12:31:47.176Z,983.96
2017-10-01T12:33:40.007Z,983.95
2017-10-01T12:34:39.875Z,983.96
2017-10-01T12:36:33.694Z,983.98
2017-10-01T12:37:33.024Z,984.04
2017-10-01T12:39:27.668Z,984.04
2017-10-01T12:40:27.418Z,984.00
2017-10-01T12:42:22.723Z,984.04
2017-10-01T12:43:22.652Z,984.01
2017-10-01T12:45:17.715Z,984.04
2017-10-01T12:46:16.773Z,984.01
2017-10-01T12:48:09.201Z,983.98
2017-10-01T12:49:09.134Z,984.01
2017-10-01T12:51:03.947Z,984.00
2017-10-01T12:52:03.147Z,984.03
2017-10-01T12:53:56.424Z,984.00
2017-10-01T12:54:56.161Z,983.97
2017-10-01T12:56:50.231Z,983.97
2017-10-01T12:57:50.559Z,983.97
2017-10-01T12:59:45.874Z,983.98
2017-10-01T13:00:44.211Z,984.00
2017-10-01T13:02:34.830Z,984.00
2017-10-01T13:03:34.742Z,984.00
2017-10-01T13:05:28.361Z,984.00
2017-10-01T13:06:28.093Z,984.03
2017-10-01T13:08:22.321Z,984.00
2017-10-01T13:09:22.260Z,984.00
2017-10-01T13:11:16.319Z,983.98
2017-10-01T13:12:15.980Z,983.99
2017-10-01T13:14:06.924Z,983.99
2017-10-01T13:15:06.679Z,984.03
2017-10-01T13:17:00.353Z,984.07
2017-10-01T13:18:00.276Z,984.06
2017-10-01T13:19:55.243Z,984.06
2017-10-01T13:20:55.027Z,984.07
2017-10-01T13:22:49.032Z,984.09
2017-10-01T13:23:48.222Z,984.07
2017-10-01T13:25:43.376Z,984.11
2017-10-01T13:26:42.027Z,984.12
2017-10-01T13:28:33.512Z,984.10
2017-10-01T13:29:33.403Z,984.13
2017-10-01T13:31:27.270Z,984.14
2017-10-01T13:32:27.019Z,984.17
2017-10-01T13:34:22.544Z,984.15
2017-10-01T13:35:19.841Z,984.12
2017-10-01T13:37:12.762Z,984.20
2017-10-01T13:38:13.104Z,984.14
2017-10-01T13:40:05.777Z,984.17
2017-10-01T13:41:05.113Z,984.20
2017-10-01T13:42:58.356Z,984.20
2017-10-01T13:43:58.640Z,984.19
2017-10-01T13:45:51.557Z,984.20
2017-10-01T13:46:51.389Z,984.18
2017-10-01T13:48:46.466Z,984.16
2017-10-01T13:49:44.728Z,984.14
2017-10-01T13:51:36.870Z,984.16
2017-10-01T13:52:36.626Z,984.16
2017-10-01T13:54:30.079Z,984.20
2017-10-01T13:55:30.967Z,984.15
2017-10-01T13:57:24.027Z,984.16
2017-10-01T13:58:23.761Z,984.13
2017-10-01T14:00:17.420Z,984.14
2017-10-01T14:01:17.641Z,984.12
2017-10-01T14:03:10.192Z,984.11
2017-10-01T14:04:09.938Z,984.07
2017-10-01T14:06:02.707Z,984.08
2017-10-01T14:07:02.627Z,984.15
2017-10-01T14:08:56.146Z,984.15
2017-10-01T14:09:55.878Z,984.15
2017-10-01T14:11:48.617Z,984.13
2017-10-01T14:12:48.644Z,984.16
2017-10-01T14:14:44.511Z,984.13
2017-10-01T14:15:42.872Z,984.15
2017-10-01T14:17:34.227Z,984.16
2017-10-01T14:18:33.960Z,984.17
2017-10-01T14:20:27.405Z,984.15
2017-10-01T14:21:27.328Z,984.15
2017-10-01T14:23:20.487Z,984.08
2017-10-01T14:24:20.040Z,984.09
2017-10-01T14:26:15.306Z,984.07
2017-10-01T14:27:13.270Z,984.10
2017-10-01T14:29:06.149Z,984.11
2017-10-01T14:30:05.887Z,984.10
2017-10-01T14:31:59.248Z,984.11
2017-10-01T14:32:58.587Z,984.13
2017-10-01T14:34:52.528Z,984.12
2017-10-01T14:35:52.549Z,984.13
2017-10-01T14:37:46.834Z,984.14
2017-10-01T14:38:45.249Z,984.13
2017-10-01T14:40:37.516Z,984.13
2017-10-01T14:41:37.261Z,984.08
2017-10-01T14:43:30.210Z,984.04
2017-10-01T14:44:30.133Z,984.07
2017-10-01T14:46:24.737Z,984.01
2017-10-01T14:47:24.998Z,984.03
2017-10-01T14:49:18.004Z,984.05
2017-10-01T14:50:17.949Z,984.07
2017-10-01T14:52:11.075Z,984.06
2017-10-01T14:53:09.960Z,984.08
2017-10-01T14:55:04.737Z,984.07
2017-10-01T14:56:03.521Z,984.04
2017-10-01T14:57:56.940Z,984.02
2017-10-01T14:58:56.855Z,984.02
2017-10-01T15:00:50.552Z,984.01
2017-10-01T15:01:50.564Z,984.02
2017-10-01T15:03:42.792Z,983.98
2017-10-01T15:04:43.218Z,984.01
2017-10-01T15:06:35.198Z,983.97
2017-10-01T15:07:34.940Z,983.98
2017-10-01T15:09:29.316Z,983.98
2017-10-01T15:10:28.803Z,983.98
2017-10-01T15:12:22.625Z,983.97
2017-10-01T15:13:21.954Z,983.95
2017-10-01T15:15:16.817Z,983.93
2017-10-01T15:16:14.417Z,983.94
2017-10-01T15:18:07.089Z,983.86
2017-10-01T15:19:07.037Z,983.90
2017-10-01T15:21:01.070Z,983.92
2017-10-01T15:22:00.496Z,983.85
2017-10-01T15:23:54.358Z,983.86
2017-10-01T15:24:54.264Z,983.84
2017-10-01T15:26:50.054Z,983.84
2017-10-01T15:27:48.030Z,983.80
2017-10-01T15:29:44.705Z,983.76
2017-10-01T15:30:41.490Z,983.81
2017-10-01T15:32:33.570Z,983.78
2017-10-01T15:33:33.453Z,983.74
2017-10-01T15:35:27.020Z,983.76
2017-10-01T15:36:26.920Z,983.75
2017-10-01T15:38:19.774Z,983.83
2017-10-01T15:39:19.637Z,983.82
2017-10-01T15:41:12.997Z,983.87
2017-10-01T15:42:13.944Z,983.84
2017-10-01T15:44:05.110Z,983.89
2017-10-01T15:45:05.024Z,983.91
2017-10-01T15:46:58.168Z,983.91
2017-10-01T15:47:57.918Z,983.91
2017-10-01T15:49:51.515Z,983.92
2017-10-01T15:50:50.930Z,983.94
2017-10-01T15:52:44.411Z,983.94
2017-10-01T15:53:44.105Z,983.95
2017-10-01T15:55:37.198Z,983.97
2017-10-01T15:56:36.069Z,983.94
2017-10-01T15:58:29.380Z,983.92
2017-10-01T15:59:29.189Z,983.90
2017-10-01T16:01:23.181Z,983.88
2017-10-01T16:02:22.992Z,983.89
2017-10-01T16:04:16.506Z,983.84
2017-10-01T16:05:15.867Z,983.88
2017-10-01T16:07:09.282Z,983.87
2017-10-01T16:08:09.278Z,983.90
2017-10-01T16:10:02.357Z,983.87
2017-10-01T16:11:02.074Z,983.92
2017-10-01T16:12:55.323Z,983.94
2017-10-01T16:13:55.295Z,983.94
2017-10-01T16:15:50.796Z,983.95
2017-10-01T16:16:47.956Z,983.96
2017-10-01T16:18:43.027Z,983.97
2017-10-01T16:19:41.962Z,983.99
2017-10-01T16:21:34.687Z,983.96
2017-10-01T16:22:34.433Z,983.97
2017-10-01T16:24:28.961Z,983.93
2017-10-01T16:25:28.279Z,983.91
2017-10-01T16:27:23.740Z,983.90
2017-10-01T16:28:23.642Z,983.92
2017-10-01T16:30:16.698Z,983.94
2017-10-01T16:31:16.449Z,983.91
2017-10-01T16:33:09.102Z,983.90
2017-10-01T16:34:09.060Z,983.90
2017-10-01T16:36:03.209Z,983.90
2017-10-01T16:37:03.083Z,983.88
2017-10-01T16:38:56.782Z,983.88
2017-10-01T16:39:56.650Z,983.90
2017-10-01T16:41:49.445Z,983.91
2017-10-01T16:42:49.327Z,983.89
2017-10-01T16:44:42.860Z,983.93
2017-10-01T16:45:42.163Z,983.94
2017-10-01T16:47:34.817Z,983.91
2017-10-01T16:48:34.729Z,983.94
2017-10-01T16:50:27.602Z,983.98
2017-10-01T16:51:27.318Z,983.97
2017-10-01T16:53:20.152Z,983.95
2017-10-01T16:54:20.055Z,983.96
2017-10-01T16:56:13.116Z,983.95
2017-10-01T16:57:12.718Z,983.94
2017-10-01T16:59:05.448Z,983.94
2017-10-01T17:00:05.337Z,984.01
2017-10-01T17:01:58.129Z,983.99
2017-10-01T17:02:58.003Z,984.02
2017-10-01T17:04:50.835Z,983.96
2017-10-01T17:05:50.753Z,984.00
2017-10-01T17:07:43.855Z,983.98
2017-10-01T17:08:43.517Z,983.97
2017-10-01T17:10:36.247Z,984.03
2017-10-01T17:11:36.069Z,984.07
2017-10-01T17:13:28.803Z,984.07
2017-10-01T17:14:28.723Z,984.07
2017-10-01T17:16:21.536Z,984.09
2017-10-01T17:17:21.397Z,984.07
2017-10-01T17:19:14.159Z,984.07
2017-10-01T17:20:14.090Z,984.11
2017-10-01T17:22:06.855Z,984.09
2017-10-01T17:23:06.737Z,984.11
2017-10-01T17:24:59.467Z,984.10
2017-10-01T17:25:59.385Z,984.09
2017-10-01T17:27:52.215Z,984.11
2017-10-01T17:28:52.071Z,984.12
2017-10-01T17:30:44.809Z,984.11
2017-10-01T17:31:44.788Z,984.11
2017-10-01T17:33:37.528Z,984.20
2017-10-01T17:34:37.417Z,984.19
2017-10-01T17:36:30.235Z,984.21
2017-10-01T17:37:30.155Z,984.29
2017-10-01T17:39:22.952Z,984.27
2017-10-01T17:40:22.827Z,984.28
2017-10-01T17:42:15.667Z,984.29
2017-10-01T17:43:15.513Z,984.27
2017-10-01T17:45:08.298Z,984.28
2017-10-01T17:46:08.145Z,984.31
2017-10-01T17:48:00.948Z,984.28
2017-10-01T17:49:00.820Z,984.26
2017-10-01T17:50:53.620Z,984.23
2017-10-01T17:51:53.536Z,984.21
2017-10-01T17:53:46.463Z,984.20
2017-10-01T17:54:46.270Z,984.22
2017-10-01T17:56:39.011Z,984.19
2017-10-01T17:57:38.921Z,984.18